This is the latest recevied weather packets stored in our database for station/object K1JO. If no packets are shown the sender has not sent any weather packets the latest 1 day(s).
| Time | Temp. | Humidity | Pressure | Rain* | Wind** | Luminosity | Snow |
|---|---|---|---|---|---|---|---|
| 1778000710 | 20.56° C | 57% | 1002.1 hPa | 0 mm | 3.58 m/s, 156° | 728 W/m² | - |
| 1778000406 | 21.11° C | 59% | 1002.2 hPa | 0 mm | 1.79 m/s, 163° | 728 W/m² | - |
| 1778000101 | 21.11° C | 57% | 1002.2 hPa | 0 mm | 0.89 m/s, 322° | 738 W/m² | - |
| 1777999797 | 21.67° C | 55% | 1002.1 hPa | 0 mm | 4.02 m/s, 221° | 737 W/m² | - |
| 1777999494 | 21.11° C | 58% | 1002.2 hPa | 0 mm | 0.45 m/s, 171° | 752 W/m² | - |
| 1777999192 | 21.11° C | 58% | 1002.5 hPa | 0 mm | 0.89 m/s, 97° | 745 W/m² | - |
| 1777998890 | 21.11° C | 57% | 1002.5 hPa | 0 mm | 1.79 m/s, 121° | 748 W/m² | - |
| 1777998590 | 21.11° C | 58% | 1002.7 hPa | 0 mm | 2.68 m/s, 143° | 769 W/m² | - |
| 1777998285 | 21.67° C | 56% | 1002.6 hPa | 0 mm | 2.68 m/s, 79° | 771 W/m² | - |
| 1777997981 | 21.11° C | 57% | 1002.9 hPa | 0 mm | 1.79 m/s, 269° | 776 W/m² | - |
| 1777997678 | 21.11° C | 58% | 1002.9 hPa | 0 mm | 1.34 m/s, 50° | 768 W/m² | - |
| 1777997376 | 21.11° C | 58% | 1003 hPa | 0 mm | 1.79 m/s, 331° | 694 W/m² | - |
| 1777997074 | 20.56° C | 58% | 1002.9 hPa | 0 mm | 2.68 m/s, 182° | 753 W/m² | - |
| 1777996770 | 20.56° C | 58% | 1003 hPa | 0 mm | 2.68 m/s, 167° | 746 W/m² | - |
| 1777996467 | 20° C | 60% | 1003.2 hPa | 0 mm | 0.89 m/s, 252° | 745 W/m² | - |
| 1777996163 | 20° C | 60% | 1003.1 hPa | 0 mm | 0.45 m/s, 4° | 740 W/m² | - |
| 1777995860 | 20.56° C | 58% | 1003.1 hPa | 0 mm | 1.79 m/s, 159° | 730 W/m² | - |
| 1777995556 | 20.56° C | 57% | 1003 hPa | 0 mm | 3.58 m/s, 210° | 735 W/m² | - |
| 1777995253 | 20.56° C | 57% | 1003 hPa | 0 mm | 1.79 m/s, 32° | 722 W/m² | - |
| 1777994950 | 20.56° C | 60% | 1003.2 hPa | 0 mm | 0.89 m/s, 251° | 730 W/m² | - |
| 1777994648 | 20° C | 58% | 1003.1 hPa | 0 mm | 0.89 m/s, 109° | 723 W/m² | - |
| 1777994347 | 20.56° C | 58% | 1003.1 hPa | 0 mm | 2.68 m/s, 348° | 720 W/m² | - |
| 1777994044 | 20.56° C | 59% | 1003.1 hPa | 0 mm | 1.34 m/s, 157° | 719 W/m² | - |
| 1777993741 | 20.56° C | 56% | 1003 hPa | 0 mm | 1.79 m/s, 299° | 712 W/m² | - |
| 1777993433 | 20° C | 56% | 1003.1 hPa | 0 mm | 1.79 m/s, 287° | 705 W/m² | - |
* Rain latest hour (hover to see other rain measurements)
** Current wind speed in m/s (hover to see current wind gust speed)